Graneros, Argentina
Current Conditions -  °F | °C
As of 10:00 AM on Wednesday 22 Oct 2014 (Local Time) from SANT Reporting Station
Clear Clear  
Wind Chill: 77°   Ceiling: Unl
Heat Index: 79°   Visibility: 4mi
Dew Point: 63°   Wind: 5mph
Humidity: 61%   Direction: 230°SW
Pressure: 29.97"   Gusts: NA
Location:  27.65°S, 65.44°W
Report Text: SANT 221300Z 23004KT 7000 NSC 25/17 Q1015
Loading
Personal Weather Stations






























Interactive Weather Map New forecast layout! Learn more

10-Day Weather Forecast

Advertisements
Track Severe Weather on mobile